Latest Weather Observations for Kurnell

IDN60801

Issued at 2:05 pm EST Sunday 31 August 2014 (issued every 30 minutes, with the page automatically refreshed every 10 minutes)

About weather observations | Map of weather stations | Latest weather observations for NSW | Other Formats
Station Details ID: 066043 Name: KURNELL AWS Lat: -34.00 Lon: 151.21 Height: 4.0 m
Data from the previous 72 hours. | See also: Recent months for locations in New South Wales
Date/Time
EST
Temp
°C
App
Temp
°C
Dew
Point
Rel
Hum
%
Delta-T
°C
Wind Press
QNH
hPa
Press
MSL
hPa
Rain
since 9 am
mm
Dir
 
Spd
km/h
Gust
km/h
Spd
kts
Gust
kts
31/02:00pm - - - - - SE 17 20 9 11 - - -
31/01:30pm - - - - - SE 19 24 10 13 - - -
31/01:00pm - - - - - SSE 15 20 8 11 - - -
31/12:30pm - - - - - S 17 20 9 11 - - -
31/12:00pm - - - - - S 17 24 9 13 - - -
31/11:30am - - - - - S 15 20 8 11 - - -
31/11:00am - - - - - S 20 26 11 14 - - -
31/10:30am - - - - - SSW 20 26 11 14 - - -
31/10:00am - - - - - W 13 17 7 9 - - -
31/09:30am - - - - - WNW 17 17 9 9 - - -
31/09:00am - - - - - WNW 17 19 9 10 - - -
31/08:30am - - - - - W 19 20 10 11 - - -
31/08:00am - - - - - W 17 20 9 11 - - -
31/07:30am - - - - - W 20 22 11 12 - - -
31/07:00am - - - - - WSW 15 20 8 11 - - -
31/06:30am - - - - - W 17 19 9 10 - - -
31/06:00am - - - - - W 19 22 10 12 - - -
31/05:30am - - - - - W 20 26 11 14 - - -
31/05:00am - - - - - W 15 19 8 10 - - -
31/04:30am - - - - - W 19 22 10 12 - - -
31/04:00am - - - - - W 22 26 12 14 - - -
31/03:30am - - - - - W 17 19 9 10 - - -
31/03:00am - - - - - SW 19 28 10 15 - - -
31/02:30am - - - - - SW 20 30 11 16 - - -
31/02:00am - - - - - SW 20 30 11 16 - - -
31/01:30am - - - - - SW 20 30 11 16 - - -
31/01:00am - - - - - SW 22 30 12 16 - - -
31/12:30am - - - - - SW 26 33 14 18 - - -
31/12:00am - - - - - SW 26 35 14 19 - - -
 
Date/Time
EST
Temp
°C
App
Temp
°C
Dew
Point
Rel
Hum
%
Delta-T
°C
Wind Press
QNH
hPa
Press
MSL
hPa
Rain
since 9 am
mm
Dir
 
Spd
km/h
Gust
km/h
Spd
kts
Gust
kts
30/11:30pm - - - - - SW 28 35 15 19 - - -
30/11:00pm - - - - - SW 30 41 16 22 - - -
30/10:30pm - - - - - SW 30 37 16 20 - - -
30/10:00pm - - - - - SW 32 43 17 23 - - -
30/09:30pm - - - - - SW 24 32 13 17 - - -
30/09:00pm - - - - - SW 28 39 15 21 - - -
30/08:30pm - - - - - SW 28 37 15 20 - - -
30/08:00pm - - - - - SW 28 39 15 21 - - -
30/07:57pm - - - - - SW 30 48 16 26 - - -
30/07:30pm - - - - - SW 26 35 14 19 - - -
30/07:00pm - - - - - SW 30 39 16 21 - - -
30/06:30pm - - - - - SW 28 39 15 21 - - -
30/06:00pm - - - - - SW 33 48 18 26 - - -
30/05:43pm - - - - - SW 30 48 16 26 - - -
30/05:30pm - - - - - SW 33 48 18 26 - - -
30/05:00pm - - - - - SW 30 41 16 22 - - -
30/04:30pm - - - - - SW 33 44 18 24 - - -
30/04:00pm - - - - - SW 37 54 20 29 - - -
30/03:53pm - - - - - SSW 35 54 19 29 - - -
30/03:30pm - - - - - SSW 30 41 16 22 - - -
30/03:00pm - - - - - SW 33 41 18 22 - - -
30/02:30pm - - - - - SW 33 48 18 26 - - -
30/02:00pm - - - - - SW 33 46 18 25 - - -
30/01:30pm - - - - - SSW 37 50 20 27 - - -
30/01:00pm - - - - - SSW 39 54 21 29 - - -
30/12:53pm - - - - - SW 37 56 20 30 - - -
30/12:30pm - - - - - SW 37 48 20 26 - - -
30/12:00pm - - - - - SW 35 46 19 25 - - -
30/11:30am - - - - - SSW 37 52 20 28 - - -
30/11:00am - - - - - SSW 35 50 19 27 - - -
30/10:30am - - - - - SSW 39 54 21 29 - - -
30/10:00am - - - - - SW 39 57 21 31 - - -
30/09:30am - - - - - SSW 39 54 21 29 - - -
30/09:21am - - - - - SW 35 54 19 29 - - -
30/09:00am - - - - - SW 33 50 18 27 - - -
30/08:44am - - - - - SSW 39 57 21 31 - - -
30/08:30am - - - - - SW 37 52 20 28 - - -
30/08:00am - - - - - SW 37 50 20 27 - - -
30/07:43am - - - - - SW 37 56 20 30 - - -
30/07:30am - - - - - SW 37 50 20 27 - - -
30/07:06am - - - - - SSW 33 54 18 29 - - -
30/07:00am - - - - - SW 35 48 19 26 - - -
30/06:30am - - - - - SW 39 52 21 28 - - -
30/06:06am - - - - - SW 37 56 20 30 - - -
30/06:00am - - - - - SW 41 57 22 31 - - -
30/05:30am - - - - - SW 41 63 22 34 - - -
30/05:07am - - - - - SSW 41 59 22 32 - - -
30/05:00am - - - - - SSW 41 57 22 31 - - -
30/04:30am - - - - - SSW 43 61 23 33 - - -
30/04:03am - - - - - SSW 44 63 24 34 - - -
30/04:00am - - - - - SSW 44 57 24 31 - - -
30/03:35am - - - - - SSW 46 69 25 37 - - -
30/03:30am - - - - - SSW 46 63 25 34 - - -
30/03:28am - - - - - SSW 44 63 24 34 - - -
30/03:00am - - - - - SSW 41 56 22 30 - - -
30/02:41am - - - - - SSW 41 59 22 32 - - -
30/02:30am - - - - - SSW 41 56 22 30 - - -
30/02:00am - - - - - SSW 41 59 22 32 - - -
30/01:37am - - - - - SSW 39 59 21 32 - - -
30/01:30am - - - - - SSW 37 52 20 28 - - -
30/01:23am - - - - - SSW 39 57 21 31 - - -
30/01:00am - - - - - SSW 44 59 24 32 - - -
30/12:39am - - - - - SSW 39 59 21 32 - - -
30/12:30am - - - - - SSW 41 56 22 30 - - -
30/12:01am - - - - - SSW 35 54 19 29 - - -
30/12:00am - - - - - SSW 37 54 20 29 - - -
 
Date/Time
EST
Temp
°C
App
Temp
°C
Dew
Point
Rel
Hum
%
Delta-T
°C
Wind Press
QNH
hPa
Press
MSL
hPa
Rain
since 9 am
mm
Dir
 
Spd
km/h
Gust
km/h
Spd
kts
Gust
kts
29/11:31pm - - - - - SW 39 57 21 31 - - -
29/11:30pm - - - - - SW 37 52 20 28 - - -
29/11:11pm - - - - - SW 35 54 19 29 - - -
29/11:00pm - - - - - SW 35 50 19 27 - - -
29/10:34pm - - - - - SSW 39 57 21 31 - - -
29/10:30pm - - - - - SSW 43 57 23 31 - - -
29/10:00pm - - - - - SSW 39 52 21 28 - - -
29/09:33pm - - - - - SSW 43 61 23 33 - - -
29/09:30pm - - - - - SSW 43 57 23 31 - - -
29/09:00pm - - - - - SSW 46 65 25 35 - - -
29/08:32pm - - - - - SSW 39 63 21 34 - - -
29/08:30pm - - - - - SSW 39 54 21 29 - - -
29/08:10pm - - - - - SSW 41 59 22 32 - - -
29/08:00pm - - - - - SSW 44 59 24 32 - - -
29/07:30pm - - - - - S 37 57 20 31 - - -
29/07:00pm - - - - - S 46 69 25 37 - - -
29/06:44pm - - - - - S 41 67 22 36 - - -
29/06:30pm - - - - - S 44 61 24 33 - - -
29/06:11pm - - - - - S 43 61 23 33 - - -
29/06:00pm - - - - - SSW 43 57 23 31 - - -
29/05:30pm - - - - - S 41 59 22 32 - - -
29/05:21pm - - - - - S 35 54 19 29 - - -
29/05:00pm - - - - - SSW 39 56 21 30 - - -
29/04:47pm - - - - - SSW 39 59 21 32 - - -
29/04:30pm - - - - - SSW 35 46 19 25 - - -
29/04:00pm - - - - - SSW 35 50 19 27 - - -
29/03:50pm - - - - - SW 35 54 19 29 - - -
29/03:30pm - - - - - SW 35 52 19 28 - - -
29/03:00pm - - - - - SW 35 50 19 27 - - -
29/02:30pm - - - - - SSW 35 50 19 27 - - -
29/02:22pm - - - - - SSW 30 50 16 27 - - -
29/02:00pm - - - - - SW 26 39 14 21 - - -
29/01:42pm - - - - - SSW 32 50 17 27 - - -
29/01:30pm - - - - - SW 32 44 17 24 - - -
29/01:00pm - - - - - SW 32 41 17 22 - - -
29/12:30pm - - - - - SSW 20 33 11 18 - - -
29/12:00pm - - - - - SW 30 39 16 21 - - -
29/11:30am - - - - - SSW 28 41 15 22 - - -
29/11:00am - - - - - SW 24 32 13 17 - - -
29/10:30am - - - - - SSW 32 46 17 25 - - -
29/10:00am - - - - - SW 28 41 15 22 - - -
29/09:30am - - - - - SSW 33 43 18 23 - - -
29/09:00am - - - - - WSW 22 28 12 15 - - -
29/08:30am - - - - - SW 26 33 14 18 - - -
29/08:00am - - - - - SW 22 30 12 16 - - -
29/07:30am - - - - - SW 15 19 8 10 - - -
29/07:00am - - - - - WSW 20 26 11 14 - - -
29/06:30am - - - - - WSW 20 28 11 15 - - -
29/06:00am - - - - - W 20 24 11 13 - - -
29/05:30am - - - - - WSW 19 28 10 15 - - -
29/05:00am - - - - - SW 17 22 9 12 - - -
29/04:30am - - - - - SW 20 26 11 14 - - -
29/04:00am - - - - - WSW 19 26 10 14 - - -
29/03:30am - - - - - SW 22 26 12 14 - - -
29/03:00am - - - - - WSW 22 28 12 15 - - -
29/02:30am - - - - - WSW 11 13 6 7 - - -
29/02:00am - - - - - SW 13 19 7 10 - - -
29/01:30am - - - - - SW 17 22 9 12 - - -
29/01:00am - - - - - SW 19 26 10 14 - - -
29/12:30am - - - - - SW 19 26 10 14 - - -
29/12:00am - - - - - SW 13 19 7 10 - - -
 
Date/Time
EST
Temp
°C
App
Temp
°C
Dew
Point
Rel
Hum
%
Delta-T
°C
Wind Press
QNH
hPa
Press
MSL
hPa
Rain
since 9 am
mm
Dir
 
Spd
km/h
Gust
km/h
Spd
kts
Gust
kts
28/11:30pm - - - - - WSW 19 26 10 14 - - -
28/11:00pm - - - - - SW 17 24 9 13 - - -
28/10:30pm - - - - - SSW 20 28 11 15 - - -
28/10:00pm - - - - - S 19 26 10 14 - - -
28/09:30pm - - - - - SSE 22 32 12 17 - - -
28/09:00pm - - - - - S 19 28 10 15 - - -
28/08:30pm - - - - - S 19 30 10 16 - - -
28/08:00pm - - - - - S 20 30 11 16 - - -
28/07:30pm - - - - - S 20 32 11 17 - - -
28/07:00pm - - - - - S 22 32 12 17 - - -
28/06:30pm - - - - - S 24 32 13 17 - - -
28/06:00pm - - - - - S 22 35 12 19 - - -
28/05:30pm - - - - - S 24 33 13 18 - - -
28/05:00pm - - - - - SSE 26 35 14 19 - - -
28/04:30pm - - - - - S 26 33 14 18 - - -
28/04:00pm - - - - - S 26 37 14 20 - - -
28/03:30pm - - - - - SSE 24 35 13 19 - - -
28/03:00pm - - - - - S 30 39 16 21 - - -
28/02:30pm - - - - - S 30 39 16 21 - - -

Other Formats:

Comma delimited format used in spreadsheet applications
http://www.bom.gov.au/fwo/IDN60801/IDN60801.95756.axf

JavaScript Object Notation format (JSON) in row-major order
http://www.bom.gov.au/fwo/IDN60801/IDN60801.95756.json